Data for 04/30/2008

Time Sea-Level Adjusted Pressure Absolute Pressure Temperature Relative Humidity Dew Point   
(mb) (inHg) (mb) (inHg) (C) (F) (%) (C) (F)
00:05 1005 29.68 835 24.66 2.7 36.9 96 2.2 35.9
00:10 1005 29.68 835 24.66 2.4 36.2 97 1.9 35.4
00:15 1005 29.68 835 24.66 2.1 35.7 97 1.7 35
00:20 1005 29.68 834 24.63 2 35.6 98 1.7 35.1
00:25 1006 29.71 835 24.66 2 35.5 98 1.7 35
00:30 1005 29.68 835 24.66 1.8 35.3 98 1.6 34.9
00:35 1006 29.71 835 24.66 1.6 34.8 99 1.4 34.5
00:40 1006 29.71 835 24.66 1.4 34.4 99 1.2 34.2
00:45 1006 29.71 835 24.66 1.3 34.3 99 1.1 34.1
00:50 1006 29.71 835 24.66 1.1 34 100 1.1 33.9
00:55 1006 29.71 835 24.66 1.1 33.9 100 1 33.9
01:00 1006 29.71 835 24.66 1 33.8 100 1 33.8
01:05 1006 29.71 835 24.66 0.9 33.6 100 0.9 33.6
01:10 1006 29.71 835 24.66 0.8 33.4 164 7.7 45.9
01:15 1006 29.71 835 24.66 0.7 33.3 164 7.7 45.9
01:20 1006 29.71 835 24.66 0.7 33.2 164 7.7 45.8
01:25 1006 29.71 835 24.66 0.6 33.1 164 7.6 45.7
01:30 1006 29.71 835 24.66 0.7 33.2 164 7.7 45.8
01:35 1006 29.71 835 24.66 0.6 33.2 164 7.7 45.8
01:40 1006 29.71 835 24.66 0.7 33.2 164 7.7 45.8
01:45 1006 29.71 835 24.66 0.6 33.1 164 7.6 45.7
01:50 1006 29.71 835 24.66 0.6 33.1 164 7.6 45.8
01:55 1006 29.71 835 24.66 0.6 33 164 7.6 45.6
02:00 1006 29.71 835 24.66 0.5 32.9 164 7.5 45.5
02:05 1006 29.71 835 24.66 0.4 32.8 164 7.5 45.4
02:10 1006 29.71 835 24.66 0.4 32.7 164 7.4 45.3
02:15 1006 29.71 835 24.66 0.4 32.7 164 7.4 45.4
02:20 1006 29.71 835 24.66 0.3 32.5 164 7.3 45.1
02:25 1006 29.71 835 24.66 0.3 32.5 164 7.3 45.2
02:30 1006 29.71 835 24.66 0.3 32.6 164 7.3 45.2
02:35 1006 29.71 835 24.66 0.3 32.5 164 7.3 45.2
02:40 1006 29.71 835 24.66 0.3 32.5 164 7.3 45.1
02:45 1006 29.71 835 24.66 0.3 32.5 164 7.3 45.2
02:50 1006 29.71 835 24.66 0.2 32.4 164 7.3 45.1
02:55 1006 29.71 835 24.66 0.2 32.4 164 7.2 45
03:00 1006 29.71 835 24.66 0.3 32.5 164 7.3 45.1
03:05 1006 29.71 835 24.66 0.1 32.2 164 7.1 44.8
03:10 1006 29.71 835 24.66 -0.2 31.6 164 6.8 44.2
03:15 1006 29.71 835 24.66 -0.4 31.3 164 6.6 43.9
03:20 1006 29.71 835 24.66 -0.6 31 164 6.4 43.6
03:25 1006 29.71 836 24.69 -0.7 30.8 164 6.3 43.3
03:30 1006 29.71 836 24.69 -0.8 30.6 164 6.2 43.2
03:35 1007 29.74 836 24.69 -0.7 30.7 164 6.2 43.2
03:40 1007 29.74 836 24.69 -0.7 30.8 164 6.3 43.4
03:45 1007 29.74 836 24.69 -0.6 30.9 164 6.3 43.4
03:50 1007 29.74 836 24.69 -0.7 30.8 164 6.3 43.4
03:55 1007 29.74 836 24.69 -0.6 30.9 164 6.4 43.5
04:00 1007 29.74 836 24.69 -0.7 30.8 164 6.3 43.3
04:05 1007 29.74 836 24.69 -0.8 30.6 164 6.2 43.2
04:10 1007 29.74 836 24.69 -0.8 30.5 164 6.1 43.1
04:15 1007 29.74 836 24.69 -0.8 30.5 164 6.1 43
04:20 1007 29.74 836 24.69 -0.9 30.4 164 6.1 43
04:25 1007 29.74 836 24.69 -0.9 30.3 164 6 42.9
04:30 1007 29.74 836 24.69 -0.9 30.3 164 6 42.8
04:35 1007 29.74 836 24.69 -1 30.3 164 6 42.8
04:40 1007 29.74 836 24.69 -1.1 30 164 5.9 42.6
04:45 1007 29.74 836 24.69 -1.2 29.9 164 5.8 42.4
04:50 1007 29.74 836 24.69 -1.3 29.7 164 5.7 42.2
04:55 1007 29.74 836 24.69 -1.3 29.6 164 5.6 42.1
05:00 1007 29.74 836 24.69 -1.4 29.5 164 5.5 42
05:05 1007 29.74 836 24.69 -1.4 29.4 164 5.5 41.9
05:10 1007 29.74 836 24.69 -1.5 29.3 164 5.4 41.8
05:15 1007 29.74 836 24.69 -1.6 29.1 164 5.3 41.6
05:20 1007 29.74 836 24.69 -1.7 29 164 5.3 41.5
05:25 1007 29.74 836 24.69 -1.7 29 164 5.3 41.5
05:30 1007 29.74 836 24.69 -1.7 29 164 5.3 41.5
05:35 1007 29.74 836 24.69 -1.6 29 164 5.3 41.5
05:40 1007 29.74 836 24.69 -1.7 29 164 5.3 41.5
05:45 1007 29.74 836 24.69 -1.7 29 164 5.3 41.5
05:50 1007 29.74 836 24.69 -1.7 29 164 5.3 41.5
05:55 1007 29.74 836 24.69 -1.7 28.9 164 5.2 41.4
06:00 1007 29.74 836 24.69 -1.8 28.8 164 5.2 41.3
06:05 1007 29.74 836 24.69 -1.8 28.8 164 5.1 41.3
06:10 1007 29.74 836 24.69 -1.8 28.8 164 5.1 41.3
06:15 1007 29.74 836 24.69 -1.7 29 164 5.3 41.5
06:20 1007 29.74 836 24.69 -1.6 29.1 164 5.3 41.6
06:25 1007 29.74 836 24.69 -1.5 29.3 164 5.5 41.8
06:30 1007 29.74 836 24.69 -1.6 29.1 164 5.3 41.6
06:35 1007 29.74 836 24.69 -1.7 29 164 5.3 41.5
06:40 1007 29.74 836 24.69 -1.7 28.9 164 5.2 41.4
06:45 1007 29.74 836 24.69 -1.8 28.8 165 5.1 41.2
06:50 1007 29.74 837 24.72 -1.8 28.8 164 5.1 41.3
06:55 1007 29.74 837 24.72 -1.8 28.8 164 5.1 41.2
07:00 1007 29.74 837 24.72 -1.8 28.8 164 5.1 41.2
07:05 1007 29.74 837 24.72 -1.8 28.9 164 5.2 41.3
07:10 1008 29.77 837 24.72 -1.7 28.9 164 5.2 41.3
07:15 1007 29.74 837 24.72 -1.7 28.9 164 5.2 41.4
07:20 1007 29.74 837 24.72 -1.6 29 164 5.3 41.5
07:25 1007 29.74 837 24.72 -1.6 29 164 5.3 41.5
07:30 1008 29.77 837 24.72 -1.6 29 164 5.3 41.5
07:35 1008 29.77 837 24.72 -1.6 29.2 164 5.4 41.7
07:40 1008 29.77 837 24.72 -1.4 29.4 164 5.5 41.9
07:45 1008 29.77 837 24.72 -1.4 29.4 164 5.5 41.9
07:50 1008 29.77 837 24.72 -1.4 29.5 164 5.6 42
07:55 1008 29.77 837 24.72 -1.3 29.6 164 5.6 42.1
08:00 1008 29.77 837 24.72 -1.3 29.7 164 5.7 42.2
08:05 1008 29.77 837 24.72 -1.3 29.7 164 5.7 42.3
08:10 1008 29.77 837 24.72 -1.2 29.8 164 5.7 42.3
08:15 1008 29.77 837 24.72 -1.1 29.9 164 5.8 42.5
08:20 1008 29.77 837 24.72 -1.1 29.9 164 5.8 42.5
08:25 1008 29.77 837 24.72 -1.1 30 164 5.8 42.5
08:30 1008 29.77 837 24.72 -1.1 30 164 5.9 42.5
08:35 1008 29.77 837 24.72 -1.2 29.9 164 5.8 42.4
08:40 1008 29.77 837 24.72 -1.2 29.8 164 5.7 42.3
08:45 1008 29.77 837 24.72 -1.3 29.7 164 5.7 42.2
08:50 1008 29.77 837 24.72 -1.3 29.7 164 5.7 42.2
08:55 1008 29.77 837 24.72 -1.2 29.8 164 5.7 42.3
09:00 1008 29.77 837 24.72 -1.2 29.9 164 5.8 42.4
09:05 1008 29.77 837 24.72 -1.2 29.8 164 5.7 42.3
09:10 1008 29.77 837 24.72 -1.1 30 164 5.9 42.6
09:15 1008 29.77 837 24.72 -0.9 30.3 164 6 42.8
09:20 1008 29.77 837 24.72 -0.9 30.3 164 6 42.8
09:25 1008 29.77 837 24.72 -0.9 30.4 164 6.1 42.9
09:30 1008 29.77 837 24.72 -0.9 30.3 164 6 42.9
09:35 1008 29.77 837 24.72 -0.7 30.7 164 6.2 43.2
09:40 1008 29.77 837 24.72 -0.6 30.8 164 6.3 43.4
09:45 1008 29.77 837 24.72 -0.5 31 164 6.5 43.6
09:50 1008 29.77 837 24.72 -0.4 31.2 164 6.6 43.8
09:55 1008 29.77 837 24.72 -0.4 31.4 164 6.6 44
10:00 1008 29.77 837 24.72 -0.3 31.5 164 6.7 44
10:05 1008 29.77 837 24.72 -0.2 31.6 164 6.8 44.2
10:10 1008 29.77 837 24.72 -0.1 31.8 164 6.9 44.4
10:15 1008 29.77 837 24.72 0.1 32.2 164 7.1 44.9
10:20 1008 29.77 837 24.72 0.2 32.3 164 7.2 45
10:25 1008 29.77 837 24.72 0.5 33 164 7.6 45.6
10:30 1008 29.77 837 24.72 0.5 32.9 164 7.5 45.5
10:35 1008 29.77 837 24.72 0.6 33 164 7.6 45.7
10:40 1008 29.77 837 24.72 0.9 33.6 164 7.9 46.3
10:45 1008 29.77 838 24.75 1.1 34 164 8.1 46.7
10:50 1008 29.77 837 24.72 0.9 33.7 164 8 46.4
10:55 1008 29.77 837 24.72 1 33.7 164 8 46.4
11:00 1008 29.77 837 24.72 1 33.7 164 8 46.4
11:05 1008 29.77 837 24.72 0.9 33.6 164 7.9 46.3
11:10 1008 29.77 837 24.72 1.3 34.3 164 8.3 47
11:15 1008 29.77 837 24.72 1.3 34.4 164 8.4 47.1
11:20 1008 29.77 837 24.72 1.5 34.6 164 8.5 47.4
11:25 1008 29.77 837 24.72 1.4 34.5 164 8.5 47.3
11:30 1008 29.77 837 24.72 1.6 34.9 164 8.7 47.7
11:35 1008 29.77 837 24.72 2 35.6 164 9.1 48.3
11:40 1008 29.77 837 24.72 2 35.6 85 -0.3 31.5
11:45 1008 29.77 837 24.72 2.2 36 82 -0.5 31.1
11:50 1008 29.77 837 24.72 2.3 36.1 79 -1 30.3
11:55 1008 29.77 837 24.72 2.1 35.9 78 -1.4 29.6
12:00 1008 29.77 838 24.75 2.2 36 75 -1.7 29
12:05 1008 29.77 838 24.75 2.5 36.5 73 -1.8 28.8
12:10 1008 29.77 838 24.75 3 37.4 71 -1.8 28.7
12:15 1008 29.77 838 24.75 2.8 37 71 -2 28.4
12:20 1008 29.77 838 24.75 3 37.4 69 -2 28.3
12:25 1008 29.77 838 24.75 3.2 37.8 69 -2 28.4
12:30 1008 29.77 838 24.75 3.5 38.4 66 -2.2 28
12:35 1008 29.77 838 24.75 3.4 38.1 66 -2.3 27.8
12:40 1008 29.77 838 24.75 3.4 38.1 64 -2.8 27
12:45 1008 29.77 838 24.75 3.6 38.6 59 -3.5 25.7
12:50 1008 29.77 837 24.72 3.5 38.4 62 -3.1 26.4
12:55 1008 29.77 837 24.72 4.2 39.5 58 -3.4 25.8
13:00 1008 29.77 837 24.72 3.4 38.2 60 -3.6 25.5
13:05 1008 29.77 837 24.72 3.5 38.3 57 -4.2 24.4
13:10 1008 29.77 837 24.72 3.5 38.3 55 -4.6 23.7
13:15 1008 29.77 837 24.72 4.1 39.5 54 -4.4 24
13:20 1008 29.77 837 24.72 3.7 38.6 56 -4.3 24.3
13:25 1008 29.77 837 24.72 4.6 40.3 52 -4.5 23.9
13:30 1008 29.77 837 24.72 4.7 40.4 53 -4.1 24.5
13:35 1008 29.77 837 24.72 4.4 40 54 -3.9 24.9
13:40 1008 29.77 837 24.72 4.8 40.7 53 -3.8 25.1
13:45 1008 29.77 837 24.72 5.1 41.2 52 -3.9 24.9
13:50 1008 29.77 837 24.72 5.6 42.1 52 -3.4 25.8
13:55 1008 29.77 837 24.72 6.3 43.4 49 -3.6 25.5
14:00 1008 29.77 837 24.72 6.5 43.7 49 -3.6 25.6
14:05 1008 29.77 838 24.75 6.6 43.9 47 -3.8 25.2
14:10 1008 29.77 838 24.75 6.9 44.4 48 -3.4 25.8
14:15 1008 29.77 838 24.75 6.7 44.1 48 -3.6 25.4
14:20 1008 29.77 838 24.75 6.1 43 50 -3.6 25.6
14:25 1008 29.77 838 24.75 6 42.7 51 -3.3 26
14:30 1008 29.77 838 24.75 5.1 41.2 52 -3.9 25
14:35 1008 29.77 838 24.75 4.6 40.2 54 -3.9 24.9
14:40 1008 29.77 838 24.75 5.5 41.8 50 -4.1 24.7
14:45 1009 29.8 838 24.75 5.7 42.2 53 -3.2 26.2
14:50 1009 29.8 838 24.75 5.7 42.3 51 -3.7 25.3
14:55 1009 29.8 838 24.75 5.4 41.6 53 -3.4 25.8
15:00 1009 29.8 838 24.75 6.1 43.1 53 -2.8 27
15:05 1009 29.8 838 24.75 6 42.7 63 -0.6 31
15:10 1009 29.8 838 24.75 4 39.3 71 -0.7 30.7
15:15 1009 29.8 838 24.75 2.5 36.5 78 -0.9 30.4
15:20 1009 29.8 838 24.75 2.8 37.1 79 -0.5 31.1
15:25 1009 29.8 838 24.75 2.9 37.2 78 -0.6 30.9
15:30 1009 29.8 838 24.75 2.6 36.8 81 -0.4 31.3
15:35 1009 29.8 839 24.78 2.3 36.1 84 -0.2 31.7
15:40 1009 29.8 839 24.78 2.7 36.8 81 -0.2 31.6
15:45 1009 29.8 839 24.78 2.2 35.9 85 -0.1 31.8
15:50 1009 29.8 839 24.78 2.2 36 84 -0.1 31.7
15:55 1009 29.8 839 24.78 2.6 36.6 83 -0.1 31.8
16:00 1009 29.8 839 24.78 2.7 36.8 81 -0.3 31.5
16:05 1009 29.8 839 24.78 2.3 36.2 81 -0.5 31
16:10 1009 29.8 839 24.78 2.4 36.3 81 -0.5 31.2
16:15 1009 29.8 839 24.78 1.9 35.4 82 -0.8 30.6
16:20 1009 29.8 839 24.78 2.5 36.5 81 -0.5 31.1
16:25 1009 29.8 839 24.78 3.3 37.9 78 -0.2 31.7
16:30 1009 29.8 839 24.78 3.2 37.8 80 0.1 32.1
16:35 1009 29.8 839 24.78 3 37.4 80 -0.2 31.6
16:40 1009 29.8 839 24.78 2.9 37.3 79 -0.4 31.3
16:45 1009 29.8 839 24.78 3.1 37.6 77 -0.5 31.1
16:50 1009 29.8 839 24.78 3.2 37.8 76 -0.6 30.9
16:55 1009 29.8 839 24.78 3.8 38.9 71 -1 30.3
17:00 1009 29.8 839 24.78 3.7 38.7 65 -2.2 28.1
17:05 1009 29.8 838 24.75 3.4 38.1 66 -2.3 27.8
17:10 1009 29.8 839 24.78 3.4 38.2 64 -2.7 27.2
17:15 1009 29.8 839 24.78 3.3 38 66 -2.4 27.7
17:20 1009 29.8 839 24.78 3.6 38.5 62 -2.9 26.7
17:25 1010 29.83 839 24.78 3.5 38.4 62 -3.2 26.3
17:30 1010 29.83 839 24.78 3.9 39.1 60 -3.1 26.4
17:35 1010 29.83 839 24.78 4.2 39.5 57 -3.5 25.7
17:40 1010 29.83 839 24.78 4.4 39.9 55 -3.7 25.3
17:45 1010 29.83 839 24.78 5.1 41.2 55 -3.2 26.2
17:50 1010 29.83 839 24.78 5.6 42 55 -2.9 26.9
17:55 1010 29.83 839 24.78 5.6 42.1 54 -3 26.6
18:00 1010 29.83 839 24.78 5.5 41.8 53 -3.2 26.2
18:05 1010 29.83 839 24.78 5.7 42.2 54 -3 26.6
18:10 1010 29.83 839 24.78 5.4 41.6 55 -3.1 26.5
18:15 1010 29.83 839 24.78 5.3 41.6 54 -3.3 26
18:20 1010 29.83 839 24.78 5.3 41.5 54 -3.3 26.1
18:25 1010 29.83 839 24.78 5.3 41.5 54 -3.2 26.3
18:30 1010 29.83 839 24.78 5 41 54 -3.5 25.7
18:35 1010 29.83 839 24.78 4.4 39.9 55 -3.7 25.3
18:40 1010 29.83 839 24.78 4.7 40.5 53 -3.9 24.9
18:45 1010 29.83 839 24.78 5.3 41.5 51 -4 24.9
18:50 1010 29.83 839 24.78 5 41.1 52 -4 24.8
18:55 1010 29.83 839 24.78 5.1 41.2 50 -4.4 24.1
19:00 1010 29.83 839 24.78 5.1 41.2 51 -4.1 24.5
19:05 1010 29.83 839 24.78 5.5 41.8 50 -4.2 24.4
19:10 1010 29.83 839 24.78 5 40.9 54 -3.7 25.4
19:15 1010 29.83 839 24.78 5 41.1 51 -4.2 24.4
19:20 1010 29.83 839 24.78 4.8 40.6 52 -4.4 24.2
19:25 1010 29.83 839 24.78 4.8 40.6 51 -4.4 24
19:30 1010 29.83 839 24.78 4.8 40.7 52 -4.3 24.3
19:35 1010 29.83 839 24.78 5 41 51 -4.3 24.3
19:40 1010 29.83 839 24.78 4.9 40.7 52 -4.3 24.3
19:45 1010 29.83 839 24.78 4.7 40.5 51 -4.4 24
19:50 1010 29.83 839 24.78 4.5 40.2 53 -4.1 24.6
19:55 1010 29.83 839 24.78 4.4 40 56 -3.6 25.5
20:00 1010 29.83 839 24.78 4.2 39.6 57 -3.6 25.5
20:05 1010 29.83 839 24.78 4.1 39.3 59 -3.3 26
20:10 1010 29.83 839 24.78 4 39.1 63 -2.4 27.7
20:15 1010 29.83 839 24.78 3.6 38.5 67 -1.9 28.6
20:20 1010 29.83 840 24.81 3.3 38 68 -2.1 28.3
20:25 1010 29.83 840 24.81 3.3 38 68 -2.1 28.3
20:30 1011 29.85 840 24.81 3.3 37.9 68 -2 28.4
20:35 1011 29.85 840 24.81 3.1 37.6 69 -2 28.4
20:40 1011 29.85 840 24.81 3 37.4 70 -1.9 28.6
20:45 1011 29.85 840 24.81 3 37.4 70 -1.9 28.6
20:50 1011 29.85 840 24.81 3 37.4 70 -1.9 28.6
20:55 1011 29.85 840 24.81 2.9 37.3 70 -1.9 28.6
21:00 1011 29.85 840 24.81 2.6 36.7 72 -1.9 28.5
21:05 1011 29.85 840 24.81 2.4 36.3 73 -1.9 28.6
21:10 1011 29.85 840 24.81 2 35.7 74 -2.1 28.3
21:15 1011 29.85 840 24.81 2 35.6 74 -2.1 28.2
21:20 1011 29.85 841 24.83 2 35.6 74 -2.1 28.3
21:25 1011 29.85 841 24.83 2 35.5 74 -2.2 28
21:30 1011 29.85 841 24.83 2.3 36.1 73 -2.2 28.1
21:35 1011 29.85 841 24.83 2.3 36.1 73 -2.2 28.1
21:40 1011 29.85 841 24.83 2.3 36.1 72 -2.3 27.9
21:45 1012 29.88 841 24.83 2.5 36.5 70 -2.5 27.6
21:50 1012 29.88 841 24.83 2.4 36.4 71 -2.3 27.8
21:55 1012 29.88 841 24.83 2.1 35.7 74 -2 28.3
22:00 1012 29.88 841 24.83 1.6 34.9 76 -2.2 28.1
22:05 1012 29.88 841 24.83 1.6 34.9 76 -2.1 28.2
22:10 1012 29.88 841 24.83 1.8 35.3 76 -2 28.5
22:15 1012 29.88 841 24.83 1.6 34.9 79 -1.7 28.9
22:20 1012 29.88 841 24.83 1.6 35 78 -1.7 28.9
22:25 1012 29.88 841 24.83 1.5 34.7 78 -1.9 28.6
22:30 1012 29.88 841 24.83 1.4 34.5 79 -1.8 28.7
22:35 1012 29.88 841 24.83 1.3 34.3 79 -2 28.4
22:40 1012 29.88 841 24.83 1.6 34.9 78 -1.8 28.7
22:45 1012 29.88 841 24.83 1.7 35.1 77 -1.8 28.7
22:50 1012 29.88 841 24.83 1.7 35.1 76 -2 28.3
22:55 1012 29.88 841 24.83 1.4 34.5 77 -2.2 28
23:00 1012 29.88 841 24.83 1.3 34.4 76 -2.4 27.6
23:05 1012 29.88 841 24.83 1.4 34.5 76 -2.4 27.6
23:10 1012 29.88 841 24.83 1.3 34.3 75 -2.6 27.4
23:15 1012 29.88 841 24.83 1.2 34.1 76 -2.6 27.3
23:20 1012 29.88 841 24.83 1.2 34.1 75 -2.7 27.1
23:25 1012 29.88 841 24.83 1.1 34 76 -2.7 27.1
23:30 1012 29.88 841 24.83 1.2 34.2 74 -2.8 26.9
23:35 1012 29.88 841 24.83 1.3 34.4 73 -2.9 26.8
23:40 1012 29.88 841 24.83 1.4 34.6 73 -2.9 26.8
23:45 1012 29.88 841 24.83 1.4 34.6 73 -2.9 26.7
23:50 1012 29.88 841 24.83 1.5 34.7 72 -3 26.5
23:55 1012 29.88 841 24.83 1.6 34.9 71 -3.2 26.3
24:00 1012 29.88 842 24.86 1.7 35.1 70 -3.1 26.4